Friendswood, TX

13:00 CDT le 24 octobre 2014 (GMT -0500)
Clover | Change Station
CLOSE
Current Station
Aéroport
Location: Houston Clover,
Altitude: 43 ft
Stations météo à proximité

Alt. 43 ft 29.52 °N, 95.24 °W | Updated 7 minutes ago

Ciel dégagé
Ciel dégagé
76 ° F
Paraît 76 ° F
N
6
Vent Variable Vent de Variable

Aujourd'hui
Haut(e) -- | Bas -- ° F
--% Risque de précip.
Hier
Haut(e) -- | Bas -- ° F
Precip. -- pouce
7:28 AM 6:41 PM
Nouvelle lune, 1% visible
Pression 30.16 pouce
Visibilité 10.0 Miles terrestres
Nuages Ciel dégagé
Point de rosée 45 ° F
Humidité 33%
Précipitations 0.00 pouce
Profondeur de la couche neigeuse Non disponible.
UV 7 sur 12
Pollen 4.90 sur 12
Ozone Bon
PM2.5 Moyen
Flu Activity Sporadic
METAR KLVJ 241753Z AUTO VRB05KT 10SM CLR 24/07 A3016 RMK AO2 SLP212 T02440072 10244 20144 58007

More Conditions Fewer Conditions

Pression 30.16 pouce
Visibilité 10.0 Miles terrestres
Nuages Ciel dégagé
Point de rosée 45 ° F
Humidité 33%
Précipitations 0.00 pouce
Profondeur de la couche neigeuse Non disponible.
UV 7 sur 12
Pollen 4.90 sur 12
Ozone Bon
PM2.5 Moyen
Flu Activity Sporadic
METAR KLVJ 241753Z AUTO VRB05KT 10SM CLR 24/07 A3016 RMK AO2 SLP212 T02440072 10244 20144 58007

More Conditions Fewer Conditions

10-Day Weather Forecast

Almanac

Astronomie

Oct. 24, 2014 Lever Coucher
Temps réel 07:28 CDT 18:41 CDT
Crépuscule civil 07:04 CDT 19:05 CDT
Crépuscule nautique 06:36 CDT 19:33 CDT
Crépuscule astronomique 06:08 CDT 20:01 CDT
Lune 08:06 CDT 19:25 CDT
Durée de lumière visible 12h 01m
Longueur du jour
11h 12m
Tomorrow will be 1m 38s shorter.
Nouvelle lune, 1% of the Moon is Illuminated
Aujourd'hui
Nouvelle lune
Oct 30
Premier quartier
Nov 6
Pleine lune
Nov 14
Dernier quartier
Nov 22
Nouveau

Extrêmes aujourd'hui

State Highs State Lows

Community

WunderPhotos

Upload Photos

1,764,628 Photos téléchargées !

WunderBlogs® & News

Nearby

Qualité de l'air

  Qualité de l'air Indice de la qualité de l'air Polluant
Hier Moyen
PM2.5
Hier Bon
OZONE
Actuel Moyen
PM2.5
Actuel Bon
OZONE
vendredi Moyen
OZONE
vendredi Bon
PM10
samedi Insalubre pour les personnes sensibles
OZONE
samedi Bon
PM10
dimanche Moyen
OZONE
dimanche Bon
PM10
lundi Bon
OZONE
lundi Bon
PM10
mardi Bon
OZONE
mardi Bon
PM10

Épaisseur de neige

Station Depth Altitude
Pas de nouvelles chutes de neige

Activité sismique

Ville Distance Mag. Time & Date
No recent earthquake activity has been reported nearby.
Minimum magnitude displayed is 2.5.

Températures des eaux côtières

Lieu Température
Eagle Point, TX 73.0 ° F
USCG Freeport, TX 75.0 ° F
Galveston Pier TX 73.0 ° F
Galveston Bay (North Jetty), TX 73.9 ° F
Rollover Pass, TX 73.0 ° F

Stations météo à proximité